LEWISTON (LEW)

Elevation: 1870' · TRINITY R basin · Operator: US Bureau of Reclamation

Provisional data, subject to change.
Query executed Wednesday at 14:36:21   clock

Select a sensor type for a plot of data.
Note: Reservoir Flows are daily averages.

Earlier

Date RES ELE    STORAGE    RES CHG    OUTFLOW    INFLOW    EVAP    RIV REL    SPILL    DIS PWR   
 FEET   AF   AF   CFS   CFS   CFS   CFS   CFS   CFS  
10/27/2014 1900.89 13830 -605 1129 826 2 320 165 0
10/28/2014 1901.71 14442 612 1007 1318 2 314 161 0
10/29/2014 1901.86 14554 112 1061 1118 1 317 162 0
10/30/2014 1901.61 14367 -187 1000 907 1 315 160 0
10/31/2014 1901.53 14307 -60 1036 1006 0 316 161 0
11/01/2014 1901.36 14180 -127 1012 950 2 315 160 0
11/02/2014 1901.45 14248 68 1006 1042 2 301 152 0
11/03/2014 1901.67 14412 164 1214 1299 2 317 162 0
11/04/2014 1900.86 13808 -604 326 22 1 312 157 0
11/05/2014 1901.05 13948 140 353 425 1 301 146 0
11/06/2014 1901.27 14113 165 561 644 0 304 149 0
11/07/2014 1901.78 14494 381 450 642 0 305 150 0
11/08/2014 1901.41 14218 -276 435 297 1 305 150 0
11/09/2014 1901.04 13941 -277 317 178 1 303 148 0
11/10/2014 1900.99 13904 -37 639 620 0 303 148 0
11/11/2014 1900.99 13904 0 707 708 1 303 148 0
11/12/2014 1900.97 13889 -15 317 310 1 303 148 0
11/13/2014 1901.05 13948 59 424 455 1 304 149 0
11/14/2014 1900.91 13845 -103 476 424 0 305 150 0
11/15/2014 1901.15 14023 178 471 563 2 306 151 0
11/16/2014 1901.10 13986 -37 380 363 2 307 152 0
11/17/2014 1901.15 14023 37 512 533 2 309 154 0
11/18/2014 1901.37 14188 165 667 750 0 311 156 0
11/19/2014 1901.31 14143 -45 703 680 0 310 155 0
11/20/2014 1901.40 14210 67 604 638 0 308 153 0
11/21/2014 1901.21 14068 -142 554 482 0 310 155 0
11/22/2014 1901.49 14278 210 323 429 0 309 154 0
11/23/2014 1901.85 14547 269 382 520 2 309 154 0
11/24/2014 1901.20 14061 -486 813 569 1 311 156 0
11/25/2014 1900.99 13904 -157 686 608 1 307 152 0
11/26/2014 -- -- -- -- -- -- -- -- --

Later | Latest

Warning! This data is preliminary and subject to revision.

Show LEW Map | Plot LEW Data | 1 Month LEW Data | Real-Time LEW Data | LEW Info